sensor_id;sensor_type;location;lat;lon;timestamp;P1;durP1;ratioP1;P2;durP2;ratioP2
35434;SDS011;21556;55.782;37.528;2023-04-21T00:01:45;7.00;;;4.32;;
35434;SDS011;21556;55.782;37.528;2023-04-21T00:04:12;7.63;;;4.00;;
35434;SDS011;21556;55.782;37.528;2023-04-21T00:06:39;13.85;;;4.82;;
35434;SDS011;21556;55.782;37.528;2023-04-21T00:09:08;7.63;;;3.70;;
35434;SDS011;21556;55.782;37.528;2023-04-21T00:11:37;6.82;;;3.75;;
35434;SDS011;21556;55.782;37.528;2023-04-21T00:14:06;8.57;;;4.25;;
35434;SDS011;21556;55.782;37.528;2023-04-21T00:16:33;9.05;;;3.80;;
35434;SDS011;21556;55.782;37.528;2023-04-21T00:18:59;10.60;;;3.80;;
35434;SDS011;21556;55.782;37.528;2023-04-21T00:21:36;7.75;;;3.63;;
35434;SDS011;21556;55.782;37.528;2023-04-21T00:24:03;8.63;;;3.88;;
35434;SDS011;21556;55.782;37.528;2023-04-21T00:26:32;8.05;;;4.13;;
35434;SDS011;21556;55.782;37.528;2023-04-21T00:29:00;9.15;;;5.82;;
35434;SDS011;21556;55.782;37.528;2023-04-21T00:31:28;12.80;;;5.28;;
35434;SDS011;21556;55.782;37.528;2023-04-21T00:36:26;12.30;;;6.03;;
35434;SDS011;21556;55.782;37.528;2023-04-21T00:38:53;13.40;;;5.93;;
35434;SDS011;21556;55.782;37.528;2023-04-21T00:41:21;8.32;;;6.07;;
35434;SDS011;21556;55.782;37.528;2023-04-21T00:44:00;14.95;;;5.50;;
35434;SDS011;21556;55.782;37.528;2023-04-21T00:46:30;9.48;;;5.88;;
35434;SDS011;21556;55.782;37.528;2023-04-21T00:48:58;12.57;;;5.63;;
35434;SDS011;21556;55.782;37.528;2023-04-21T00:51:28;18.00;;;4.95;;
35434;SDS011;21556;55.782;37.528;2023-04-21T00:54:04;7.35;;;4.97;;
35434;SDS011;21556;55.782;37.528;2023-04-21T00:56:33;10.55;;;6.15;;
35434;SDS011;21556;55.782;37.528;2023-04-21T00:59:01;11.52;;;5.93;;
35434;SDS011;21556;55.782;37.528;2023-04-21T01:01:29;11.13;;;4.72;;
35434;SDS011;21556;55.782;37.528;2023-04-21T01:03:59;7.72;;;5.15;;
35434;SDS011;21556;55.782;37.528;2023-04-21T01:06:30;13.82;;;5.13;;
35434;SDS011;21556;55.782;37.528;2023-04-21T01:09:02;11.30;;;5.03;;
35434;SDS011;21556;55.782;37.528;2023-04-21T01:11:32;6.82;;;4.60;;
35434;SDS011;21556;55.782;37.528;2023-04-21T01:13:59;7.45;;;4.75;;
35434;SDS011;21556;55.782;37.528;2023-04-21T01:16:26;6.25;;;4.28;;
35434;SDS011;21556;55.782;37.528;2023-04-21T01:18:54;6.10;;;4.53;;
35434;SDS011;21556;55.782;37.528;2023-04-21T01:21:20;6.63;;;3.63;;
35434;SDS011;21556;55.782;37.528;2023-04-21T01:23:54;10.23;;;4.72;;
35434;SDS011;21556;55.782;37.528;2023-04-21T01:26:21;5.70;;;4.20;;
35434;SDS011;21556;55.782;37.528;2023-04-21T01:28:48;8.18;;;3.75;;
35434;SDS011;21556;55.782;37.528;2023-04-21T01:31:15;6.15;;;4.03;;
35434;SDS011;21556;55.782;37.528;2023-04-21T01:33:44;6.80;;;3.53;;
35434;SDS011;21556;55.782;37.528;2023-04-21T01:36:10;6.85;;;3.53;;
35434;SDS011;21556;55.782;37.528;2023-04-21T01:38:37;6.75;;;3.88;;
35434;SDS011;21556;55.782;37.528;2023-04-21T01:41:05;6.22;;;3.90;;
35434;SDS011;21556;55.782;37.528;2023-04-21T01:43:31;4.63;;;3.50;;
35434;SDS011;21556;55.782;37.528;2023-04-21T01:45:57;6.38;;;4.35;;
35434;SDS011;21556;55.782;37.528;2023-04-21T01:48:23;8.07;;;3.75;;
35434;SDS011;21556;55.782;37.528;2023-04-21T01:50:53;5.55;;;3.60;;
35434;SDS011;21556;55.782;37.528;2023-04-21T01:53:21;8.55;;;4.00;;
35434;SDS011;21556;55.782;37.528;2023-04-21T01:55:48;7.10;;;3.65;;
35434;SDS011;21556;55.782;37.528;2023-04-21T01:58:14;9.32;;;3.75;;
35434;SDS011;21556;55.782;37.528;2023-04-21T02:00:40;7.25;;;4.50;;
35434;SDS011;21556;55.782;37.528;2023-04-21T02:03:06;5.57;;;3.42;;
35434;SDS011;21556;55.782;37.528;2023-04-21T02:05:34;9.63;;;3.78;;
35434;SDS011;21556;55.782;37.528;2023-04-21T02:08:00;7.90;;;3.58;;
35434;SDS011;21556;55.782;37.528;2023-04-21T02:10:27;4.95;;;3.78;;
35434;SDS011;21556;55.782;37.528;2023-04-21T02:12:54;4.93;;;3.25;;
35434;SDS011;21556;55.782;37.528;2023-04-21T02:15:22;6.85;;;3.15;;
35434;SDS011;21556;55.782;37.528;2023-04-21T02:17:50;3.45;;;2.80;;
35434;SDS011;21556;55.782;37.528;2023-04-21T02:20:15;5.60;;;3.60;;
35434;SDS011;21556;55.782;37.528;2023-04-21T02:22:42;5.45;;;3.22;;
35434;SDS011;21556;55.782;37.528;2023-04-21T02:25:08;4.32;;;3.20;;
35434;SDS011;21556;55.782;37.528;2023-04-21T02:27:37;4.63;;;2.97;;
35434;SDS011;21556;55.782;37.528;2023-04-21T02:30:09;7.18;;;3.38;;
35434;SDS011;21556;55.782;37.528;2023-04-21T02:32:35;7.25;;;3.05;;
35434;SDS011;21556;55.782;37.528;2023-04-21T02:35:07;7.53;;;3.00;;
35434;SDS011;21556;55.782;37.528;2023-04-21T02:37:34;5.72;;;2.95;;
35434;SDS011;21556;55.782;37.528;2023-04-21T02:40:00;5.88;;;2.92;;
35434;SDS011;21556;55.782;37.528;2023-04-21T02:42:32;7.22;;;3.40;;
35434;SDS011;21556;55.782;37.528;2023-04-21T02:45:03;9.48;;;3.63;;
35434;SDS011;21556;55.782;37.528;2023-04-21T02:47:30;6.88;;;3.47;;
35434;SDS011;21556;55.782;37.528;2023-04-21T02:50:00;6.05;;;3.20;;
35434;SDS011;21556;55.782;37.528;2023-04-21T02:52:26;6.03;;;3.20;;
35434;SDS011;21556;55.782;37.528;2023-04-21T02:54:53;6.25;;;3.50;;
35434;SDS011;21556;55.782;37.528;2023-04-21T02:57:27;6.22;;;3.35;;
35434;SDS011;21556;55.782;37.528;2023-04-21T03:00:33;7.43;;;3.10;;
35434;SDS011;21556;55.782;37.528;2023-04-21T03:03:02;7.70;;;3.55;;
35434;SDS011;21556;55.782;37.528;2023-04-21T03:05:29;6.13;;;3.47;;
35434;SDS011;21556;55.782;37.528;2023-04-21T03:08:00;4.28;;;3.03;;
35434;SDS011;21556;55.782;37.528;2023-04-21T03:10:35;6.93;;;3.55;;
35434;SDS011;21556;55.782;37.528;2023-04-21T03:13:06;5.95;;;3.75;;
35434;SDS011;21556;55.782;37.528;2023-04-21T03:15:32;6.40;;;4.50;;
35434;SDS011;21556;55.782;37.528;2023-04-21T03:18:19;6.75;;;3.30;;
35434;SDS011;21556;55.782;37.528;2023-04-21T03:20:45;7.45;;;3.00;;
35434;SDS011;21556;55.782;37.528;2023-04-21T03:23:12;7.55;;;2.95;;
35434;SDS011;21556;55.782;37.528;2023-04-21T03:25:39;4.15;;;2.60;;
35434;SDS011;21556;55.782;37.528;2023-04-21T03:28:05;4.88;;;2.60;;
35434;SDS011;21556;55.782;37.528;2023-04-21T03:30:31;4.40;;;2.75;;
35434;SDS011;21556;55.782;37.528;2023-04-21T03:33:01;8.95;;;2.92;;
35434;SDS011;21556;55.782;37.528;2023-04-21T03:35:35;10.68;;;3.53;;
35434;SDS011;21556;55.782;37.528;2023-04-21T03:38:02;11.40;;;2.90;;
35434;SDS011;21556;55.782;37.528;2023-04-21T03:40:29;10.07;;;2.15;;
35434;SDS011;21556;55.782;37.528;2023-04-21T03:43:04;4.53;;;2.38;;
35434;SDS011;21556;55.782;37.528;2023-04-21T03:45:37;3.40;;;2.20;;
35434;SDS011;21556;55.782;37.528;2023-04-21T03:48:06;5.32;;;2.38;;
35434;SDS011;21556;55.782;37.528;2023-04-21T03:50:32;6.70;;;2.80;;
35434;SDS011;21556;55.782;37.528;2023-04-21T03:55:35;4.53;;;2.10;;
35434;SDS011;21556;55.782;37.528;2023-04-21T04:00:32;5.35;;;2.28;;
35434;SDS011;21556;55.782;37.528;2023-04-21T04:03:02;5.03;;;2.20;;
35434;SDS011;21556;55.782;37.528;2023-04-21T04:05:29;6.05;;;2.10;;
35434;SDS011;21556;55.782;37.528;2023-04-21T04:07:56;7.50;;;2.40;;
35434;SDS011;21556;55.782;37.528;2023-04-21T04:10:23;6.03;;;2.17;;
35434;SDS011;21556;55.782;37.528;2023-04-21T04:12:49;5.13;;;2.38;;
35434;SDS011;21556;55.782;37.528;2023-04-21T04:15:17;6.13;;;2.30;;
35434;SDS011;21556;55.782;37.528;2023-04-21T04:17:44;4.85;;;2.35;;
35434;SDS011;21556;55.782;37.528;2023-04-21T04:20:12;4.93;;;1.88;;
35434;SDS011;21556;55.782;37.528;2023-04-21T04:25:40;4.68;;;2.35;;
35434;SDS011;21556;55.782;37.528;2023-04-21T04:32:17;7.47;;;2.63;;
35434;SDS011;21556;55.782;37.528;2023-04-21T04:34:45;4.10;;;2.63;;
35434;SDS011;21556;55.782;37.528;2023-04-21T04:37:11;5.22;;;2.53;;
35434;SDS011;21556;55.782;37.528;2023-04-21T04:39:44;5.45;;;2.17;;
35434;SDS011;21556;55.782;37.528;2023-04-21T04:42:36;5.20;;;2.63;;
35434;SDS011;21556;55.782;37.528;2023-04-21T04:45:07;5.53;;;2.55;;
35434;SDS011;21556;55.782;37.528;2023-04-21T04:47:39;11.27;;;3.00;;
35434;SDS011;21556;55.782;37.528;2023-04-21T04:50:05;5.57;;;2.50;;
35434;SDS011;21556;55.782;37.528;2023-04-21T04:52:32;7.10;;;2.67;;
35434;SDS011;21556;55.782;37.528;2023-04-21T04:54:58;5.50;;;2.38;;
35434;SDS011;21556;55.782;37.528;2023-04-21T04:57:25;6.97;;;2.75;;
35434;SDS011;21556;55.782;37.528;2023-04-21T05:00:05;5.28;;;2.42;;
35434;SDS011;21556;55.782;37.528;2023-04-21T05:02:36;6.00;;;2.08;;
35434;SDS011;21556;55.782;37.528;2023-04-21T05:05:03;6.20;;;2.38;;
35434;SDS011;21556;55.782;37.528;2023-04-21T05:10:24;6.05;;;2.38;;
35434;SDS011;21556;55.782;37.528;2023-04-21T05:12:50;4.53;;;2.33;;
35434;SDS011;21556;55.782;37.528;2023-04-21T05:15:16;9.15;;;2.55;;
35434;SDS011;21556;55.782;37.528;2023-04-21T05:20:19;8.13;;;2.60;;
35434;SDS011;21556;55.782;37.528;2023-04-21T05:22:46;9.00;;;2.17;;
35434;SDS011;21556;55.782;37.528;2023-04-21T05:25:12;4.50;;;2.60;;
35434;SDS011;21556;55.782;37.528;2023-04-21T05:27:43;6.93;;;2.30;;
35434;SDS011;21556;55.782;37.528;2023-04-21T05:30:15;5.53;;;1.98;;
35434;SDS011;21556;55.782;37.528;2023-04-21T05:32:41;5.97;;;2.28;;
35434;SDS011;21556;55.782;37.528;2023-04-21T05:35:08;3.63;;;2.20;;
35434;SDS011;21556;55.782;37.528;2023-04-21T05:37:34;4.10;;;2.55;;
35434;SDS011;21556;55.782;37.528;2023-04-21T05:40:00;7.88;;;2.25;;
35434;SDS011;21556;55.782;37.528;2023-04-21T05:42:29;3.88;;;2.10;;
35434;SDS011;21556;55.782;37.528;2023-04-21T05:44:59;5.93;;;2.13;;
35434;SDS011;21556;55.782;37.528;2023-04-21T05:47:30;5.50;;;2.30;;
35434;SDS011;21556;55.782;37.528;2023-04-21T05:49:56;6.95;;;2.65;;
35434;SDS011;21556;55.782;37.528;2023-04-21T05:52:23;8.68;;;2.38;;
35434;SDS011;21556;55.782;37.528;2023-04-21T05:54:49;5.15;;;2.67;;
35434;SDS011;21556;55.782;37.528;2023-04-21T05:57:17;7.78;;;1.98;;
35434;SDS011;21556;55.782;37.528;2023-04-21T05:59:42;6.70;;;2.58;;
35434;SDS011;21556;55.782;37.528;2023-04-21T06:02:09;7.55;;;2.30;;
35434;SDS011;21556;55.782;37.528;2023-04-21T06:04:36;5.72;;;2.60;;
35434;SDS011;21556;55.782;37.528;2023-04-21T06:07:06;5.97;;;2.50;;
35434;SDS011;21556;55.782;37.528;2023-04-21T06:09:35;4.57;;;2.20;;
35434;SDS011;21556;55.782;37.528;2023-04-21T06:12:02;5.32;;;2.95;;
35434;SDS011;21556;55.782;37.528;2023-04-21T06:14:29;4.03;;;2.30;;
35434;SDS011;21556;55.782;37.528;2023-04-21T06:16:56;6.28;;;2.15;;
35434;SDS011;21556;55.782;37.528;2023-04-21T06:19:22;3.03;;;2.00;;
35434;SDS011;21556;55.782;37.528;2023-04-21T06:21:49;8.88;;;2.33;;
35434;SDS011;21556;55.782;37.528;2023-04-21T06:24:17;4.75;;;2.10;;
35434;SDS011;21556;55.782;37.528;2023-04-21T06:26:51;6.80;;;2.17;;
35434;SDS011;21556;55.782;37.528;2023-04-21T06:29:18;5.78;;;1.75;;
35434;SDS011;21556;55.782;37.528;2023-04-21T06:31:44;5.63;;;1.90;;
35434;SDS011;21556;55.782;37.528;2023-04-21T06:34:10;5.95;;;2.25;;
35434;SDS011;21556;55.782;37.528;2023-04-21T06:36:42;5.53;;;1.80;;
35434;SDS011;21556;55.782;37.528;2023-04-21T06:39:08;5.80;;;2.10;;
35434;SDS011;21556;55.782;37.528;2023-04-21T06:41:36;5.38;;;2.13;;
35434;SDS011;21556;55.782;37.528;2023-04-21T06:44:08;7.38;;;2.00;;
35434;SDS011;21556;55.782;37.528;2023-04-21T06:46:45;6.40;;;2.05;;
35434;SDS011;21556;55.782;37.528;2023-04-21T06:49:15;4.47;;;1.67;;
35434;SDS011;21556;55.782;37.528;2023-04-21T06:51:44;3.85;;;2.15;;
35434;SDS011;21556;55.782;37.528;2023-04-21T06:54:11;5.25;;;2.25;;
35434;SDS011;21556;55.782;37.528;2023-04-21T06:56:38;3.80;;;2.05;;
35434;SDS011;21556;55.782;37.528;2023-04-21T06:59:06;7.30;;;2.10;;
35434;SDS011;21556;55.782;37.528;2023-04-21T07:01:33;6.90;;;2.00;;
35434;SDS011;21556;55.782;37.528;2023-04-21T07:04:02;4.72;;;2.00;;
35434;SDS011;21556;55.782;37.528;2023-04-21T07:06:30;5.82;;;2.22;;
35434;SDS011;21556;55.782;37.528;2023-04-21T07:13:14;4.78;;;2.22;;
35434;SDS011;21556;55.782;37.528;2023-04-21T07:15:40;6.28;;;2.10;;
35434;SDS011;21556;55.782;37.528;2023-04-21T07:18:26;4.95;;;1.85;;
35434;SDS011;21556;55.782;37.528;2023-04-21T07:20:53;4.73;;;1.93;;
35434;SDS011;21556;55.782;37.528;2023-04-21T07:23:19;5.13;;;2.05;;
35434;SDS011;21556;55.782;37.528;2023-04-21T07:25:45;4.80;;;3.00;;
35434;SDS011;21556;55.782;37.528;2023-04-21T07:28:13;4.95;;;1.90;;
35434;SDS011;21556;55.782;37.528;2023-04-21T07:30:41;6.37;;;1.93;;
35434;SDS011;21556;55.782;37.528;2023-04-21T07:33:08;9.85;;;2.10;;
35434;SDS011;21556;55.782;37.528;2023-04-21T07:35:35;4.07;;;2.03;;
35434;SDS011;21556;55.782;37.528;2023-04-21T07:38:05;5.00;;;1.63;;
35434;SDS011;21556;55.782;37.528;2023-04-21T07:40:32;5.20;;;2.00;;
35434;SDS011;21556;55.782;37.528;2023-04-21T07:43:00;4.07;;;1.73;;
35434;SDS011;21556;55.782;37.528;2023-04-21T07:45:26;2.70;;;1.65;;
35434;SDS011;21556;55.782;37.528;2023-04-21T07:47:53;9.00;;;1.77;;
35434;SDS011;21556;55.782;37.528;2023-04-21T07:50:19;10.40;;;2.00;;
35434;SDS011;21556;55.782;37.528;2023-04-21T07:52:48;6.30;;;1.73;;
35434;SDS011;21556;55.782;37.528;2023-04-21T07:55:20;4.43;;;1.88;;
35434;SDS011;21556;55.782;37.528;2023-04-21T07:57:47;8.43;;;2.00;;
35434;SDS011;21556;55.782;37.528;2023-04-21T08:02:42;3.75;;;2.03;;
35434;SDS011;21556;55.782;37.528;2023-04-21T08:05:13;3.83;;;1.75;;
35434;SDS011;21556;55.782;37.528;2023-04-21T08:07:40;3.17;;;2.00;;
35434;SDS011;21556;55.782;37.528;2023-04-21T08:10:07;3.80;;;1.45;;
35434;SDS011;21556;55.782;37.528;2023-04-21T08:12:41;6.05;;;1.55;;
35434;SDS011;21556;55.782;37.528;2023-04-21T08:15:09;3.22;;;1.58;;
35434;SDS011;21556;55.782;37.528;2023-04-21T08:17:38;3.10;;;1.50;;
35434;SDS011;21556;55.782;37.528;2023-04-21T08:20:05;7.65;;;1.45;;
35434;SDS011;21556;55.782;37.528;2023-04-21T08:25:01;3.50;;;1.58;;
35434;SDS011;21556;55.782;37.528;2023-04-21T08:27:29;4.97;;;2.03;;
35434;SDS011;21556;55.782;37.528;2023-04-21T08:29:56;4.45;;;1.75;;
35434;SDS011;21556;55.782;37.528;2023-04-21T08:32:22;5.00;;;1.85;;
35434;SDS011;21556;55.782;37.528;2023-04-21T08:34:49;3.60;;;1.52;;
35434;SDS011;21556;55.782;37.528;2023-04-21T08:37:18;5.13;;;1.60;;
35434;SDS011;21556;55.782;37.528;2023-04-21T08:39:45;32.30;;;3.90;;
35434;SDS011;21556;55.782;37.528;2023-04-21T08:42:16;5.25;;;1.90;;
35434;SDS011;21556;55.782;37.528;2023-04-21T08:44:43;8.23;;;2.03;;
35434;SDS011;21556;55.782;37.528;2023-04-21T08:47:13;2.90;;;1.50;;
35434;SDS011;21556;55.782;37.528;2023-04-21T08:49:40;3.85;;;1.55;;
35434;SDS011;21556;55.782;37.528;2023-04-21T08:52:10;3.75;;;1.30;;
35434;SDS011;21556;55.782;37.528;2023-04-21T08:54:40;1.73;;;1.20;;
35434;SDS011;21556;55.782;37.528;2023-04-21T08:57:06;3.88;;;1.20;;
35434;SDS011;21556;55.782;37.528;2023-04-21T08:59:36;2.00;;;1.23;;
35434;SDS011;21556;55.782;37.528;2023-04-21T09:02:06;3.28;;;1.60;;
35434;SDS011;21556;55.782;37.528;2023-04-21T09:04:33;4.95;;;2.10;;
35434;SDS011;21556;55.782;37.528;2023-04-21T09:07:02;4.82;;;1.55;;
35434;SDS011;21556;55.782;37.528;2023-04-21T09:09:28;3.25;;;1.25;;
35434;SDS011;21556;55.782;37.528;2023-04-21T09:11:56;3.95;;;1.30;;
35434;SDS011;21556;55.782;37.528;2023-04-21T09:14:43;3.03;;;1.38;;
35434;SDS011;21556;55.782;37.528;2023-04-21T09:17:10;3.72;;;1.42;;
35434;SDS011;21556;55.782;37.528;2023-04-21T09:19:39;4.88;;;1.30;;
35434;SDS011;21556;55.782;37.528;2023-04-21T09:22:06;7.18;;;1.25;;
35434;SDS011;21556;55.782;37.528;2023-04-21T09:24:34;2.60;;;1.20;;
35434;SDS011;21556;55.782;37.528;2023-04-21T09:27:10;3.05;;;1.10;;
35434;SDS011;21556;55.782;37.528;2023-04-21T09:29:44;2.13;;;1.05;;
35434;SDS011;21556;55.782;37.528;2023-04-21T09:32:19;5.82;;;1.25;;
35434;SDS011;21556;55.782;37.528;2023-04-21T09:34:46;3.30;;;1.10;;
35434;SDS011;21556;55.782;37.528;2023-04-21T09:37:15;2.70;;;1.47;;
35434;SDS011;21556;55.782;37.528;2023-04-21T09:39:43;7.28;;;1.58;;
35434;SDS011;21556;55.782;37.528;2023-04-21T09:42:11;2.80;;;0.93;;
35434;SDS011;21556;55.782;37.528;2023-04-21T09:44:38;4.70;;;1.07;;
35434;SDS011;21556;55.782;37.528;2023-04-21T09:47:04;1.50;;;0.80;;
35434;SDS011;21556;55.782;37.528;2023-04-21T09:49:35;2.92;;;1.00;;
35434;SDS011;21556;55.782;37.528;2023-04-21T09:52:06;4.32;;;1.50;;
35434;SDS011;21556;55.782;37.528;2023-04-21T09:54:33;1.75;;;0.90;;
35434;SDS011;21556;55.782;37.528;2023-04-21T09:57:06;3.58;;;1.13;;
35434;SDS011;21556;55.782;37.528;2023-04-21T09:59:39;2.30;;;1.10;;
35434;SDS011;21556;55.782;37.528;2023-04-21T10:02:09;4.53;;;1.10;;
35434;SDS011;21556;55.782;37.528;2023-04-21T10:04:39;7.20;;;1.45;;
35434;SDS011;21556;55.782;37.528;2023-04-21T10:07:06;5.45;;;1.17;;
35434;SDS011;21556;55.782;37.528;2023-04-21T10:09:36;11.02;;;1.08;;
35434;SDS011;21556;55.782;37.528;2023-04-21T10:12:09;6.65;;;1.10;;
35434;SDS011;21556;55.782;37.528;2023-04-21T10:14:38;4.38;;;0.90;;
35434;SDS011;21556;55.782;37.528;2023-04-21T10:17:05;8.65;;;1.38;;
35434;SDS011;21556;55.782;37.528;2023-04-21T10:19:36;1.17;;;0.70;;
35434;SDS011;21556;55.782;37.528;2023-04-21T10:22:11;2.25;;;1.00;;
35434;SDS011;21556;55.782;37.528;2023-04-21T10:24:38;4.53;;;1.10;;
35434;SDS011;21556;55.782;37.528;2023-04-21T10:27:10;2.08;;;1.10;;
35434;SDS011;21556;55.782;37.528;2023-04-21T10:29:37;2.40;;;1.10;;
35434;SDS011;21556;55.782;37.528;2023-04-21T10:32:04;3.72;;;1.50;;
35434;SDS011;21556;55.782;37.528;2023-04-21T10:34:34;2.72;;;0.90;;
35434;SDS011;21556;55.782;37.528;2023-04-21T10:44:42;3.87;;;0.90;;
35434;SDS011;21556;55.782;37.528;2023-04-21T10:47:09;3.72;;;1.00;;
35434;SDS011;21556;55.782;37.528;2023-04-21T10:49:39;3.00;;;1.08;;
35434;SDS011;21556;55.782;37.528;2023-04-21T10:52:07;2.77;;;0.77;;
35434;SDS011;21556;55.782;37.528;2023-04-21T10:57:11;2.38;;;1.00;;
35434;SDS011;21556;55.782;37.528;2023-04-21T10:59:41;1.75;;;0.93;;
35434;SDS011;21556;55.782;37.528;2023-04-21T11:02:11;5.65;;;1.10;;
35434;SDS011;21556;55.782;37.528;2023-04-21T11:04:39;5.70;;;1.20;;
35434;SDS011;21556;55.782;37.528;2023-04-21T11:07:24;4.95;;;0.82;;
35434;SDS011;21556;55.782;37.528;2023-04-21T11:09:55;1.88;;;0.70;;
35434;SDS011;21556;55.782;37.528;2023-04-21T11:12:25;3.95;;;0.98;;
35434;SDS011;21556;55.782;37.528;2023-04-21T11:14:57;3.15;;;1.02;;
35434;SDS011;21556;55.782;37.528;2023-04-21T11:17:23;3.33;;;1.60;;
35434;SDS011;21556;55.782;37.528;2023-04-21T11:19:51;2.22;;;1.00;;
35434;SDS011;21556;55.782;37.528;2023-04-21T11:22:23;3.63;;;0.82;;
35434;SDS011;21556;55.782;37.528;2023-04-21T11:24:53;2.35;;;0.98;;
35434;SDS011;21556;55.782;37.528;2023-04-21T11:27:24;2.17;;;0.80;;
35434;SDS011;21556;55.782;37.528;2023-04-21T11:29:52;5.07;;;1.17;;
35434;SDS011;21556;55.782;37.528;2023-04-21T11:32:19;4.10;;;0.98;;
35434;SDS011;21556;55.782;37.528;2023-04-21T11:34:46;4.00;;;0.82;;
35434;SDS011;21556;55.782;37.528;2023-04-21T11:37:15;7.57;;;0.95;;
35434;SDS011;21556;55.782;37.528;2023-04-21T11:39:45;1.48;;;0.68;;
35434;SDS011;21556;55.782;37.528;2023-04-21T11:42:17;3.40;;;0.68;;
35434;SDS011;21556;55.782;37.528;2023-04-21T11:44:47;2.25;;;0.80;;
35434;SDS011;21556;55.782;37.528;2023-04-21T11:49:47;6.00;;;0.70;;
35434;SDS011;21556;55.782;37.528;2023-04-21T11:52:21;2.97;;;0.70;;
35434;SDS011;21556;55.782;37.528;2023-04-21T11:55:00;4.57;;;1.20;;
35434;SDS011;21556;55.782;37.528;2023-04-21T11:57:29;4.72;;;0.80;;
35434;SDS011;21556;55.782;37.528;2023-04-21T12:00:00;5.88;;;1.30;;
35434;SDS011;21556;55.782;37.528;2023-04-21T12:02:32;2.92;;;1.10;;
35434;SDS011;21556;55.782;37.528;2023-04-21T12:05:04;3.42;;;0.70;;
35434;SDS011;21556;55.782;37.528;2023-04-21T12:07:34;2.08;;;0.60;;
35434;SDS011;21556;55.782;37.528;2023-04-21T12:10:01;1.27;;;0.80;;
35434;SDS011;21556;55.782;37.528;2023-04-21T12:12:35;2.83;;;0.73;;
35434;SDS011;21556;55.782;37.528;2023-04-21T12:15:04;1.67;;;0.82;;
35434;SDS011;21556;55.782;37.528;2023-04-21T12:17:36;1.40;;;0.57;;
35434;SDS011;21556;55.782;37.528;2023-04-21T12:20:17;3.60;;;0.75;;
35434;SDS011;21556;55.782;37.528;2023-04-21T12:22:46;3.85;;;0.80;;
35434;SDS011;21556;55.782;37.528;2023-04-21T12:25:13;2.97;;;0.80;;
35434;SDS011;21556;55.782;37.528;2023-04-21T12:27:52;4.78;;;0.73;;
35434;SDS011;21556;55.782;37.528;2023-04-21T12:30:24;1.98;;;0.60;;
35434;SDS011;21556;55.782;37.528;2023-04-21T12:32:51;1.50;;;0.70;;
35434;SDS011;21556;55.782;37.528;2023-04-21T12:35:21;2.72;;;1.50;;
35434;SDS011;21556;55.782;37.528;2023-04-21T12:37:47;4.75;;;0.90;;
35434;SDS011;21556;55.782;37.528;2023-04-21T12:40:13;8.60;;;1.30;;
35434;SDS011;21556;55.782;37.528;2023-04-21T12:42:41;2.67;;;0.80;;
35434;SDS011;21556;55.782;37.528;2023-04-21T12:45:07;3.03;;;0.65;;
35434;SDS011;21556;55.782;37.528;2023-04-21T12:47:33;2.17;;;0.90;;
35434;SDS011;21556;55.782;37.528;2023-04-21T12:50:01;2.28;;;0.90;;
35434;SDS011;21556;55.782;37.528;2023-04-21T12:52:30;1.80;;;0.90;;
35434;SDS011;21556;55.782;37.528;2023-04-21T12:54:56;3.13;;;0.80;;
35434;SDS011;21556;55.782;37.528;2023-04-21T12:57:22;3.70;;;1.27;;
35434;SDS011;21556;55.782;37.528;2023-04-21T12:59:53;3.88;;;0.93;;
35434;SDS011;21556;55.782;37.528;2023-04-21T13:02:20;2.03;;;1.08;;
35434;SDS011;21556;55.782;37.528;2023-04-21T13:04:46;1.83;;;0.88;;
35434;SDS011;21556;55.782;37.528;2023-04-21T13:07:11;2.70;;;1.13;;
35434;SDS011;21556;55.782;37.528;2023-04-21T13:09:39;4.13;;;1.10;;
35434;SDS011;21556;55.782;37.528;2023-04-21T13:12:04;1.90;;;1.02;;
35434;SDS011;21556;55.782;37.528;2023-04-21T13:14:32;1.52;;;0.80;;
35434;SDS011;21556;55.782;37.528;2023-04-21T13:16:58;2.28;;;0.82;;
35434;SDS011;21556;55.782;37.528;2023-04-21T13:19:24;3.90;;;0.88;;
35434;SDS011;21556;55.782;37.528;2023-04-21T13:21:50;2.58;;;1.20;;
35434;SDS011;21556;55.782;37.528;2023-04-21T13:24:16;4.70;;;1.73;;
35434;SDS011;21556;55.782;37.528;2023-04-21T13:26:45;2.92;;;1.00;;
35434;SDS011;21556;55.782;37.528;2023-04-21T13:29:11;5.93;;;1.25;;
35434;SDS011;21556;55.782;37.528;2023-04-21T13:31:37;8.02;;;1.63;;
35434;SDS011;21556;55.782;37.528;2023-04-21T13:34:03;4.32;;;1.38;;
35434;SDS011;21556;55.782;37.528;2023-04-21T13:36:29;3.00;;;1.08;;
35434;SDS011;21556;55.782;37.528;2023-04-21T13:38:55;2.58;;;0.75;;
35434;SDS011;21556;55.782;37.528;2023-04-21T13:41:21;5.18;;;1.30;;
35434;SDS011;21556;55.782;37.528;2023-04-21T13:43:47;2.17;;;1.10;;
35434;SDS011;21556;55.782;37.528;2023-04-21T13:46:13;12.32;;;1.10;;
35434;SDS011;21556;55.782;37.528;2023-04-21T13:48:39;2.85;;;0.90;;
35434;SDS011;21556;55.782;37.528;2023-04-21T13:51:06;4.13;;;0.85;;
35434;SDS011;21556;55.782;37.528;2023-04-21T13:53:32;3.13;;;1.10;;
35434;SDS011;21556;55.782;37.528;2023-04-21T13:55:58;3.30;;;0.95;;
35434;SDS011;21556;55.782;37.528;2023-04-21T13:58:24;1.35;;;0.88;;
35434;SDS011;21556;55.782;37.528;2023-04-21T14:00:50;3.38;;;1.00;;
35434;SDS011;21556;55.782;37.528;2023-04-21T14:03:16;3.85;;;1.00;;
35434;SDS011;21556;55.782;37.528;2023-04-21T14:05:42;2.95;;;0.90;;
35434;SDS011;21556;55.782;37.528;2023-04-21T14:08:08;6.90;;;1.13;;
35434;SDS011;21556;55.782;37.528;2023-04-21T14:13:04;3.30;;;1.20;;
35434;SDS011;21556;55.782;37.528;2023-04-21T14:15:30;4.55;;;1.02;;
35434;SDS011;21556;55.782;37.528;2023-04-21T14:17:56;4.50;;;1.27;;
35434;SDS011;21556;55.782;37.528;2023-04-21T14:20:22;3.78;;;1.27;;
35434;SDS011;21556;55.782;37.528;2023-04-21T14:22:48;5.68;;;0.93;;
35434;SDS011;21556;55.782;37.528;2023-04-21T14:25:15;3.78;;;1.23;;
35434;SDS011;21556;55.782;37.528;2023-04-21T14:27:42;6.22;;;1.15;;
35434;SDS011;21556;55.782;37.528;2023-04-21T14:30:10;7.82;;;1.02;;
35434;SDS011;21556;55.782;37.528;2023-04-21T14:32:36;5.38;;;1.15;;
35434;SDS011;21556;55.782;37.528;2023-04-21T14:35:03;1.42;;;0.60;;
35434;SDS011;21556;55.782;37.528;2023-04-21T14:37:30;1.65;;;1.08;;
35434;SDS011;21556;55.782;37.528;2023-04-21T14:39:57;5.22;;;1.38;;
35434;SDS011;21556;55.782;37.528;2023-04-21T14:42:25;3.58;;;1.00;;
35434;SDS011;21556;55.782;37.528;2023-04-21T14:44:51;4.70;;;1.20;;
35434;SDS011;21556;55.782;37.528;2023-04-21T14:47:17;2.92;;;1.10;;
35434;SDS011;21556;55.782;37.528;2023-04-21T14:49:45;2.70;;;1.08;;
35434;SDS011;21556;55.782;37.528;2023-04-21T14:52:11;3.00;;;1.17;;
35434;SDS011;21556;55.782;37.528;2023-04-21T14:54:37;4.72;;;1.20;;
35434;SDS011;21556;55.782;37.528;2023-04-21T14:57:03;1.52;;;0.90;;
35434;SDS011;21556;55.782;37.528;2023-04-21T14:59:30;3.75;;;0.85;;
35434;SDS011;21556;55.782;37.528;2023-04-21T15:01:56;5.00;;;1.67;;
35434;SDS011;21556;55.782;37.528;2023-04-21T15:04:23;8.73;;;1.02;;
35434;SDS011;21556;55.782;37.528;2023-04-21T15:06:51;2.80;;;1.23;;
35434;SDS011;21556;55.782;37.528;2023-04-21T15:09:17;3.35;;;0.95;;
35434;SDS011;21556;55.782;37.528;2023-04-21T15:11:44;1.77;;;0.70;;
35434;SDS011;21556;55.782;37.528;2023-04-21T15:14:10;2.28;;;1.00;;
35434;SDS011;21556;55.782;37.528;2023-04-21T15:16:37;6.95;;;1.17;;
35434;SDS011;21556;55.782;37.528;2023-04-21T15:19:04;3.25;;;0.88;;
35434;SDS011;21556;55.782;37.528;2023-04-21T15:21:30;3.95;;;1.23;;
35434;SDS011;21556;55.782;37.528;2023-04-21T15:23:56;2.45;;;0.95;;
35434;SDS011;21556;55.782;37.528;2023-04-21T15:28:51;4.32;;;0.93;;